sensor_id;sensor_type;location;lat;lon;timestamp;P1;durP1;ratioP1;P2;durP2;ratioP2
55575;SDS011;41437;45.478;9.116;2022-11-25T00:02:51;27.30;;;17.35;;
55575;SDS011;41437;45.478;9.116;2022-11-25T00:05:52;28.23;;;17.92;;
55575;SDS011;41437;45.478;9.116;2022-11-25T00:08:54;27.73;;;17.45;;
55575;SDS011;41437;45.478;9.116;2022-11-25T00:11:57;27.37;;;17.40;;
55575;SDS011;41437;45.478;9.116;2022-11-25T00:15:00;29.20;;;18.60;;
55575;SDS011;41437;45.478;9.116;2022-11-25T00:18:02;27.73;;;17.90;;
55575;SDS011;41437;45.478;9.116;2022-11-25T00:21:05;26.10;;;17.92;;
55575;SDS011;41437;45.478;9.116;2022-11-25T00:24:08;31.40;;;19.00;;
55575;SDS011;41437;45.478;9.116;2022-11-25T00:27:12;29.45;;;19.48;;
55575;SDS011;41437;45.478;9.116;2022-11-25T00:30:16;25.83;;;18.10;;
55575;SDS011;41437;45.478;9.116;2022-11-25T00:33:17;26.80;;;17.10;;
55575;SDS011;41437;45.478;9.116;2022-11-25T00:36:19;28.52;;;18.55;;
55575;SDS011;41437;45.478;9.116;2022-11-25T00:39:22;29.80;;;18.30;;
55575;SDS011;41437;45.478;9.116;2022-11-25T00:42:26;26.02;;;17.40;;
55575;SDS011;41437;45.478;9.116;2022-11-25T00:45:46;28.75;;;18.48;;
55575;SDS011;41437;45.478;9.116;2022-11-25T00:48:47;28.42;;;18.65;;
55575;SDS011;41437;45.478;9.116;2022-11-25T00:51:49;29.55;;;19.63;;
55575;SDS011;41437;45.478;9.116;2022-11-25T00:54:52;27.02;;;18.80;;
55575;SDS011;41437;45.478;9.116;2022-11-25T00:57:54;28.40;;;19.17;;
55575;SDS011;41437;45.478;9.116;2022-11-25T01:01:01;26.65;;;18.63;;
55575;SDS011;41437;45.478;9.116;2022-11-25T01:04:03;27.25;;;18.85;;
55575;SDS011;41437;45.478;9.116;2022-11-25T01:07:05;28.45;;;18.23;;
55575;SDS011;41437;45.478;9.116;2022-11-25T01:10:07;26.42;;;17.42;;
55575;SDS011;41437;45.478;9.116;2022-11-25T01:13:09;25.70;;;17.13;;
55575;SDS011;41437;45.478;9.116;2022-11-25T01:16:13;28.52;;;17.52;;
55575;SDS011;41437;45.478;9.116;2022-11-25T01:19:16;26.92;;;17.63;;
55575;SDS011;41437;45.478;9.116;2022-11-25T01:22:18;26.42;;;16.55;;
55575;SDS011;41437;45.478;9.116;2022-11-25T01:25:20;28.77;;;18.45;;
55575;SDS011;41437;45.478;9.116;2022-11-25T01:28:22;26.27;;;18.10;;
55575;SDS011;41437;45.478;9.116;2022-11-25T01:31:26;27.20;;;17.58;;
55575;SDS011;41437;45.478;9.116;2022-11-25T01:34:29;24.73;;;17.35;;
55575;SDS011;41437;45.478;9.116;2022-11-25T01:37:33;28.42;;;17.60;;
55575;SDS011;41437;45.478;9.116;2022-11-25T01:40:34;31.25;;;18.35;;
55575;SDS011;41437;45.478;9.116;2022-11-25T01:43:36;29.60;;;19.30;;
55575;SDS011;41437;45.478;9.116;2022-11-25T01:46:42;28.52;;;18.17;;
55575;SDS011;41437;45.478;9.116;2022-11-25T01:49:48;26.48;;;18.15;;
55575;SDS011;41437;45.478;9.116;2022-11-25T01:52:58;22.50;;;16.42;;
55575;SDS011;41437;45.478;9.116;2022-11-25T01:56:01;26.92;;;17.15;;
55575;SDS011;41437;45.478;9.116;2022-11-25T01:59:04;25.20;;;17.20;;
55575;SDS011;41437;45.478;9.116;2022-11-25T02:02:07;29.77;;;18.95;;
55575;SDS011;41437;45.478;9.116;2022-11-25T02:05:09;25.50;;;16.88;;
55575;SDS011;41437;45.478;9.116;2022-11-25T02:08:15;28.70;;;17.77;;
55575;SDS011;41437;45.478;9.116;2022-11-25T02:11:19;26.88;;;18.30;;
55575;SDS011;41437;45.478;9.116;2022-11-25T02:14:24;23.77;;;16.65;;
55575;SDS011;41437;45.478;9.116;2022-11-25T02:17:28;27.70;;;17.75;;
55575;SDS011;41437;45.478;9.116;2022-11-25T02:20:30;28.27;;;17.75;;
55575;SDS011;41437;45.478;9.116;2022-11-25T02:23:33;26.65;;;17.45;;
55575;SDS011;41437;45.478;9.116;2022-11-25T02:26:41;29.27;;;17.52;;
55575;SDS011;41437;45.478;9.116;2022-11-25T02:29:43;26.13;;;17.48;;
55575;SDS011;41437;45.478;9.116;2022-11-25T02:32:45;27.02;;;17.75;;
55575;SDS011;41437;45.478;9.116;2022-11-25T02:35:49;27.15;;;18.00;;
55575;SDS011;41437;45.478;9.116;2022-11-25T02:38:53;28.25;;;17.55;;
55575;SDS011;41437;45.478;9.116;2022-11-25T02:45:00;24.50;;;16.10;;
55575;SDS011;41437;45.478;9.116;2022-11-25T02:48:03;24.60;;;16.73;;
55575;SDS011;41437;45.478;9.116;2022-11-25T02:51:05;26.88;;;17.10;;
55575;SDS011;41437;45.478;9.116;2022-11-25T02:54:09;21.98;;;16.33;;
55575;SDS011;41437;45.478;9.116;2022-11-25T02:57:12;25.60;;;17.23;;
55575;SDS011;41437;45.478;9.116;2022-11-25T03:00:14;24.15;;;16.42;;
55575;SDS011;41437;45.478;9.116;2022-11-25T03:03:17;24.17;;;16.50;;
55575;SDS011;41437;45.478;9.116;2022-11-25T03:06:18;25.80;;;16.80;;
55575;SDS011;41437;45.478;9.116;2022-11-25T03:09:20;24.33;;;15.90;;
55575;SDS011;41437;45.478;9.116;2022-11-25T03:12:24;21.20;;;15.47;;
55575;SDS011;41437;45.478;9.116;2022-11-25T03:15:28;25.02;;;16.25;;
55575;SDS011;41437;45.478;9.116;2022-11-25T03:18:29;24.58;;;16.17;;
55575;SDS011;41437;45.478;9.116;2022-11-25T03:21:31;24.02;;;16.45;;
55575;SDS011;41437;45.478;9.116;2022-11-25T03:24:33;25.95;;;16.35;;
55575;SDS011;41437;45.478;9.116;2022-11-25T03:27:36;23.92;;;16.20;;
55575;SDS011;41437;45.478;9.116;2022-11-25T03:30:38;26.50;;;16.40;;
55575;SDS011;41437;45.478;9.116;2022-11-25T03:33:40;26.92;;;16.05;;
55575;SDS011;41437;45.478;9.116;2022-11-25T03:36:42;22.58;;;16.13;;
55575;SDS011;41437;45.478;9.116;2022-11-25T03:39:44;24.73;;;15.80;;
55575;SDS011;41437;45.478;9.116;2022-11-25T03:42:46;24.70;;;15.38;;
55575;SDS011;41437;45.478;9.116;2022-11-25T03:45:48;21.42;;;15.27;;
55575;SDS011;41437;45.478;9.116;2022-11-25T03:48:50;22.95;;;15.57;;
55575;SDS011;41437;45.478;9.116;2022-11-25T03:51:52;22.63;;;15.38;;
55575;SDS011;41437;45.478;9.116;2022-11-25T03:54:54;24.23;;;14.95;;
55575;SDS011;41437;45.478;9.116;2022-11-25T03:57:57;23.38;;;16.23;;
55575;SDS011;41437;45.478;9.116;2022-11-25T04:00:59;20.67;;;14.85;;
55575;SDS011;41437;45.478;9.116;2022-11-25T04:04:00;26.90;;;15.10;;
55575;SDS011;41437;45.478;9.116;2022-11-25T04:07:02;19.90;;;14.55;;
55575;SDS011;41437;45.478;9.116;2022-11-25T04:10:04;23.83;;;15.60;;
55575;SDS011;41437;45.478;9.116;2022-11-25T04:13:08;23.80;;;15.10;;
55575;SDS011;41437;45.478;9.116;2022-11-25T04:16:15;21.73;;;14.32;;
55575;SDS011;41437;45.478;9.116;2022-11-25T04:19:22;22.10;;;14.80;;
55575;SDS011;41437;45.478;9.116;2022-11-25T04:22:25;20.77;;;14.50;;
55575;SDS011;41437;45.478;9.116;2022-11-25T04:25:26;21.00;;;14.82;;
55575;SDS011;41437;45.478;9.116;2022-11-25T04:28:29;18.83;;;14.07;;
55575;SDS011;41437;45.478;9.116;2022-11-25T04:31:31;21.63;;;14.03;;
55575;SDS011;41437;45.478;9.116;2022-11-25T04:34:33;21.33;;;13.93;;
55575;SDS011;41437;45.478;9.116;2022-11-25T04:37:34;20.08;;;14.10;;
55575;SDS011;41437;45.478;9.116;2022-11-25T04:40:36;19.75;;;12.82;;
55575;SDS011;41437;45.478;9.116;2022-11-25T04:43:39;19.95;;;14.77;;
55575;SDS011;41437;45.478;9.116;2022-11-25T04:46:42;20.98;;;14.25;;
55575;SDS011;41437;45.478;9.116;2022-11-25T04:49:43;21.25;;;13.68;;
55575;SDS011;41437;45.478;9.116;2022-11-25T04:52:45;18.75;;;13.90;;
55575;SDS011;41437;45.478;9.116;2022-11-25T04:55:47;18.40;;;12.98;;
55575;SDS011;41437;45.478;9.116;2022-11-25T04:58:49;23.42;;;14.07;;
55575;SDS011;41437;45.478;9.116;2022-11-25T05:02:13;22.52;;;14.48;;
55575;SDS011;41437;45.478;9.116;2022-11-25T05:05:15;21.77;;;14.10;;
55575;SDS011;41437;45.478;9.116;2022-11-25T05:08:17;22.08;;;13.48;;
55575;SDS011;41437;45.478;9.116;2022-11-25T05:11:18;18.77;;;13.18;;
55575;SDS011;41437;45.478;9.116;2022-11-25T05:14:21;20.23;;;12.75;;
55575;SDS011;41437;45.478;9.116;2022-11-25T05:20:26;18.55;;;11.98;;
55575;SDS011;41437;45.478;9.116;2022-11-25T05:23:28;18.50;;;11.85;;
55575;SDS011;41437;45.478;9.116;2022-11-25T05:26:29;18.23;;;11.93;;
55575;SDS011;41437;45.478;9.116;2022-11-25T05:29:32;21.08;;;11.60;;
55575;SDS011;41437;45.478;9.116;2022-11-25T05:32:34;20.02;;;12.23;;
55575;SDS011;41437;45.478;9.116;2022-11-25T05:35:36;17.83;;;11.75;;
55575;SDS011;41437;45.478;9.116;2022-11-25T05:38:37;18.58;;;11.32;;
55575;SDS011;41437;45.478;9.116;2022-11-25T05:41:39;17.38;;;10.73;;
55575;SDS011;41437;45.478;9.116;2022-11-25T05:44:42;16.67;;;10.80;;
55575;SDS011;41437;45.478;9.116;2022-11-25T05:47:43;15.18;;;10.10;;
55575;SDS011;41437;45.478;9.116;2022-11-25T05:50:45;16.20;;;10.25;;
55575;SDS011;41437;45.478;9.116;2022-11-25T05:53:47;18.10;;;11.23;;
55575;SDS011;41437;45.478;9.116;2022-11-25T05:56:48;19.60;;;11.93;;
55575;SDS011;41437;45.478;9.116;2022-11-25T05:59:51;19.92;;;12.23;;
55575;SDS011;41437;45.478;9.116;2022-11-25T06:02:53;21.50;;;12.77;;
55575;SDS011;41437;45.478;9.116;2022-11-25T06:05:54;19.65;;;12.60;;
55575;SDS011;41437;45.478;9.116;2022-11-25T06:08:56;23.80;;;13.63;;
55575;SDS011;41437;45.478;9.116;2022-11-25T06:11:58;21.13;;;12.82;;
55575;SDS011;41437;45.478;9.116;2022-11-25T06:15:01;18.88;;;13.57;;
55575;SDS011;41437;45.478;9.116;2022-11-25T06:18:02;19.08;;;12.60;;
55575;SDS011;41437;45.478;9.116;2022-11-25T06:21:04;20.33;;;13.23;;
55575;SDS011;41437;45.478;9.116;2022-11-25T06:24:07;19.63;;;13.35;;
55575;SDS011;41437;45.478;9.116;2022-11-25T06:27:08;19.05;;;13.05;;
55575;SDS011;41437;45.478;9.116;2022-11-25T06:30:12;18.63;;;13.20;;
55575;SDS011;41437;45.478;9.116;2022-11-25T06:33:14;23.55;;;14.93;;
55575;SDS011;41437;45.478;9.116;2022-11-25T06:36:17;23.00;;;15.45;;
55575;SDS011;41437;45.478;9.116;2022-11-25T06:39:19;24.40;;;16.67;;
55575;SDS011;41437;45.478;9.116;2022-11-25T06:42:21;24.95;;;17.65;;
55575;SDS011;41437;45.478;9.116;2022-11-25T06:45:24;29.63;;;22.00;;
55575;SDS011;41437;45.478;9.116;2022-11-25T06:48:26;25.88;;;19.90;;
55575;SDS011;41437;45.478;9.116;2022-11-25T06:51:28;25.55;;;19.30;;
55575;SDS011;41437;45.478;9.116;2022-11-25T06:54:29;30.25;;;22.35;;
55575;SDS011;41437;45.478;9.116;2022-11-25T06:57:31;29.00;;;23.27;;
55575;SDS011;41437;45.478;9.116;2022-11-25T07:00:34;30.73;;;24.75;;
55575;SDS011;41437;45.478;9.116;2022-11-25T07:03:35;29.48;;;21.67;;
55575;SDS011;41437;45.478;9.116;2022-11-25T07:06:37;35.60;;;26.17;;
55575;SDS011;41437;45.478;9.116;2022-11-25T07:09:38;36.03;;;24.60;;
55575;SDS011;41437;45.478;9.116;2022-11-25T07:12:40;35.38;;;26.27;;
55575;SDS011;41437;45.478;9.116;2022-11-25T07:15:43;34.60;;;26.33;;
55575;SDS011;41437;45.478;9.116;2022-11-25T07:18:45;33.28;;;24.85;;
55575;SDS011;41437;45.478;9.116;2022-11-25T07:21:46;34.83;;;26.05;;
55575;SDS011;41437;45.478;9.116;2022-11-25T07:24:48;34.88;;;25.75;;
55575;SDS011;41437;45.478;9.116;2022-11-25T07:27:50;34.22;;;26.63;;
55575;SDS011;41437;45.478;9.116;2022-11-25T07:30:52;35.50;;;25.52;;
55575;SDS011;41437;45.478;9.116;2022-11-25T07:33:54;39.70;;;27.17;;
55575;SDS011;41437;45.478;9.116;2022-11-25T07:36:57;36.00;;;27.23;;
55575;SDS011;41437;45.478;9.116;2022-11-25T07:39:59;39.30;;;27.80;;
55575;SDS011;41437;45.478;9.116;2022-11-25T07:43:00;43.47;;;28.52;;
55575;SDS011;41437;45.478;9.116;2022-11-25T07:46:10;39.88;;;28.17;;
55575;SDS011;41437;45.478;9.116;2022-11-25T07:49:14;36.75;;;28.15;;
55575;SDS011;41437;45.478;9.116;2022-11-25T07:52:17;44.28;;;30.70;;
55575;SDS011;41437;45.478;9.116;2022-11-25T07:55:19;39.22;;;28.90;;
55575;SDS011;41437;45.478;9.116;2022-11-25T07:58:20;42.45;;;29.48;;
55575;SDS011;41437;45.478;9.116;2022-11-25T08:01:25;42.72;;;30.05;;
55575;SDS011;41437;45.478;9.116;2022-11-25T08:04:26;40.15;;;28.85;;
55575;SDS011;41437;45.478;9.116;2022-11-25T08:07:28;39.33;;;30.02;;
55575;SDS011;41437;45.478;9.116;2022-11-25T08:10:29;38.90;;;28.77;;
55575;SDS011;41437;45.478;9.116;2022-11-25T08:13:31;41.22;;;28.85;;
55575;SDS011;41437;45.478;9.116;2022-11-25T08:16:34;47.08;;;32.28;;
55575;SDS011;41437;45.478;9.116;2022-11-25T08:19:36;42.17;;;32.37;;
55575;SDS011;41437;45.478;9.116;2022-11-25T08:22:39;40.13;;;32.17;;
55575;SDS011;41437;45.478;9.116;2022-11-25T08:25:41;42.55;;;31.55;;
55575;SDS011;41437;45.478;9.116;2022-11-25T08:28:43;48.92;;;33.40;;
55575;SDS011;41437;45.478;9.116;2022-11-25T08:31:47;44.25;;;34.03;;
55575;SDS011;41437;45.478;9.116;2022-11-25T08:34:48;44.03;;;33.22;;
55575;SDS011;41437;45.478;9.116;2022-11-25T08:37:50;44.92;;;33.80;;
55575;SDS011;41437;45.478;9.116;2022-11-25T08:40:52;45.50;;;31.73;;
55575;SDS011;41437;45.478;9.116;2022-11-25T08:43:54;41.80;;;32.47;;
55575;SDS011;41437;45.478;9.116;2022-11-25T08:46:57;47.45;;;34.10;;
55575;SDS011;41437;45.478;9.116;2022-11-25T08:49:59;53.00;;;33.22;;
55575;SDS011;41437;45.478;9.116;2022-11-25T08:53:00;51.90;;;35.53;;
55575;SDS011;41437;45.478;9.116;2022-11-25T08:56:02;49.83;;;35.20;;
55575;SDS011;41437;45.478;9.116;2022-11-25T08:59:04;53.03;;;36.90;;
55575;SDS011;41437;45.478;9.116;2022-11-25T09:02:07;56.33;;;34.17;;
55575;SDS011;41437;45.478;9.116;2022-11-25T09:05:09;47.78;;;35.45;;
55575;SDS011;41437;45.478;9.116;2022-11-25T09:08:12;53.58;;;36.50;;
55575;SDS011;41437;45.478;9.116;2022-11-25T09:11:15;55.22;;;38.80;;
55575;SDS011;41437;45.478;9.116;2022-11-25T09:14:16;50.72;;;37.25;;
55575;SDS011;41437;45.478;9.116;2022-11-25T09:17:19;51.25;;;37.75;;
55575;SDS011;41437;45.478;9.116;2022-11-25T09:20:21;47.75;;;35.83;;
55575;SDS011;41437;45.478;9.116;2022-11-25T09:23:23;50.78;;;37.28;;
55575;SDS011;41437;45.478;9.116;2022-11-25T09:26:26;57.35;;;37.53;;
55575;SDS011;41437;45.478;9.116;2022-11-25T09:29:30;54.22;;;38.50;;
55575;SDS011;41437;45.478;9.116;2022-11-25T09:32:33;46.30;;;34.08;;
55575;SDS011;41437;45.478;9.116;2022-11-25T09:35:36;111.25;;;39.75;;
55575;SDS011;41437;45.478;9.116;2022-11-25T09:38:38;56.90;;;38.85;;
55575;SDS011;41437;45.478;9.116;2022-11-25T09:41:44;57.03;;;39.28;;
55575;SDS011;41437;45.478;9.116;2022-11-25T09:45:14;57.60;;;39.35;;
55575;SDS011;41437;45.478;9.116;2022-11-25T09:48:45;58.20;;;40.03;;
55575;SDS011;41437;45.478;9.116;2022-11-25T09:51:58;58.80;;;40.33;;
55575;SDS011;41437;45.478;9.116;2022-11-25T09:55:07;57.38;;;39.88;;
55575;SDS011;41437;45.478;9.116;2022-11-25T09:58:18;55.33;;;38.53;;
55575;SDS011;41437;45.478;9.116;2022-11-25T10:01:27;52.28;;;38.03;;
55575;SDS011;41437;45.478;9.116;2022-11-25T10:04:36;58.33;;;39.15;;
55575;SDS011;41437;45.478;9.116;2022-11-25T10:07:44;51.17;;;36.28;;
55575;SDS011;41437;45.478;9.116;2022-11-25T10:10:49;55.25;;;39.47;;
55575;SDS011;41437;45.478;9.116;2022-11-25T10:13:57;56.65;;;37.28;;
55575;SDS011;41437;45.478;9.116;2022-11-25T10:17:03;58.47;;;38.88;;
55575;SDS011;41437;45.478;9.116;2022-11-25T10:20:13;58.50;;;39.47;;
55575;SDS011;41437;45.478;9.116;2022-11-25T10:23:20;57.92;;;39.42;;
55575;SDS011;41437;45.478;9.116;2022-11-25T10:26:26;57.78;;;36.65;;
55575;SDS011;41437;45.478;9.116;2022-11-25T10:29:34;57.20;;;39.22;;
55575;SDS011;41437;45.478;9.116;2022-11-25T10:32:39;58.22;;;36.72;;
55575;SDS011;41437;45.478;9.116;2022-11-25T10:35:45;51.25;;;36.60;;
55575;SDS011;41437;45.478;9.116;2022-11-25T10:38:54;50.15;;;35.63;;
55575;SDS011;41437;45.478;9.116;2022-11-25T10:41:58;55.92;;;36.78;;
55575;SDS011;41437;45.478;9.116;2022-11-25T10:45:04;48.58;;;34.83;;
55575;SDS011;41437;45.478;9.116;2022-11-25T10:48:12;49.65;;;35.47;;
55575;SDS011;41437;45.478;9.116;2022-11-25T10:51:36;53.28;;;35.50;;
55575;SDS011;41437;45.478;9.116;2022-11-25T10:54:52;52.88;;;36.13;;
55575;SDS011;41437;45.478;9.116;2022-11-25T10:57:56;52.55;;;36.88;;
55575;SDS011;41437;45.478;9.116;2022-11-25T11:01:04;50.15;;;35.40;;
55575;SDS011;41437;45.478;9.116;2022-11-25T11:04:10;51.42;;;34.60;;
55575;SDS011;41437;45.478;9.116;2022-11-25T11:07:15;47.85;;;32.28;;
55575;SDS011;41437;45.478;9.116;2022-11-25T11:10:18;48.90;;;32.63;;
55575;SDS011;41437;45.478;9.116;2022-11-25T11:13:23;42.08;;;30.75;;
55575;SDS011;41437;45.478;9.116;2022-11-25T11:16:27;46.55;;;32.17;;
55575;SDS011;41437;45.478;9.116;2022-11-25T11:19:31;46.22;;;31.05;;
55575;SDS011;41437;45.478;9.116;2022-11-25T11:22:35;43.00;;;31.63;;
55575;SDS011;41437;45.478;9.116;2022-11-25T11:25:53;43.00;;;31.15;;
55575;SDS011;41437;45.478;9.116;2022-11-25T11:28:57;42.28;;;29.95;;
55575;SDS011;41437;45.478;9.116;2022-11-25T11:32:02;45.53;;;31.23;;
55575;SDS011;41437;45.478;9.116;2022-11-25T11:35:06;39.70;;;29.17;;
55575;SDS011;41437;45.478;9.116;2022-11-25T11:38:25;42.03;;;30.13;;
55575;SDS011;41437;45.478;9.116;2022-11-25T11:41:35;46.42;;;30.85;;
55575;SDS011;41437;45.478;9.116;2022-11-25T11:44:43;41.78;;;30.58;;
55575;SDS011;41437;45.478;9.116;2022-11-25T11:48:03;41.55;;;30.00;;
55575;SDS011;41437;45.478;9.116;2022-11-25T11:51:14;49.75;;;33.00;;
55575;SDS011;41437;45.478;9.116;2022-11-25T11:54:25;51.88;;;32.53;;
55575;SDS011;41437;45.478;9.116;2022-11-25T11:57:34;49.65;;;35.00;;
55575;SDS011;41437;45.478;9.116;2022-11-25T12:00:46;48.15;;;33.20;;
55575;SDS011;41437;45.478;9.116;2022-11-25T12:03:59;45.85;;;33.63;;
55575;SDS011;41437;45.478;9.116;2022-11-25T12:07:04;42.67;;;30.45;;
55575;SDS011;41437;45.478;9.116;2022-11-25T12:10:14;40.58;;;29.23;;
55575;SDS011;41437;45.478;9.116;2022-11-25T12:13:21;44.00;;;29.58;;
55575;SDS011;41437;45.478;9.116;2022-11-25T12:16:29;39.72;;;29.40;;
55575;SDS011;41437;45.478;9.116;2022-11-25T12:19:36;44.15;;;29.35;;
55575;SDS011;41437;45.478;9.116;2022-11-25T12:22:46;40.75;;;28.30;;
55575;SDS011;41437;45.478;9.116;2022-11-25T12:25:55;42.03;;;29.15;;
55575;SDS011;41437;45.478;9.116;2022-11-25T12:29:04;44.75;;;31.67;;
55575;SDS011;41437;45.478;9.116;2022-11-25T12:32:16;42.88;;;31.27;;
55575;SDS011;41437;45.478;9.116;2022-11-25T12:35:42;44.28;;;31.25;;
55575;SDS011;41437;45.478;9.116;2022-11-25T12:38:52;44.92;;;32.45;;
55575;SDS011;41437;45.478;9.116;2022-11-25T12:41:57;46.28;;;33.45;;
55575;SDS011;41437;45.478;9.116;2022-11-25T12:45:02;48.22;;;32.45;;
55575;SDS011;41437;45.478;9.116;2022-11-25T12:48:07;45.67;;;30.95;;
55575;SDS011;41437;45.478;9.116;2022-11-25T12:51:15;42.72;;;31.15;;
55575;SDS011;41437;45.478;9.116;2022-11-25T12:54:29;40.22;;;28.45;;
55575;SDS011;41437;45.478;9.116;2022-11-25T13:01:33;37.85;;;27.52;;
55575;SDS011;41437;45.478;9.116;2022-11-25T13:04:52;38.90;;;27.92;;
55575;SDS011;41437;45.478;9.116;2022-11-25T13:08:17;38.00;;;26.90;;
55575;SDS011;41437;45.478;9.116;2022-11-25T13:15:13;44.90;;;30.20;;
55575;SDS011;41437;45.478;9.116;2022-11-25T13:18:24;39.85;;;28.45;;
55575;SDS011;41437;45.478;9.116;2022-11-25T13:21:28;43.88;;;29.35;;
55575;SDS011;41437;45.478;9.116;2022-11-25T13:24:30;42.03;;;27.95;;
55575;SDS011;41437;45.478;9.116;2022-11-25T13:27:54;37.55;;;25.88;;
55575;SDS011;41437;45.478;9.116;2022-11-25T13:31:16;37.43;;;25.07;;
55575;SDS011;41437;45.478;9.116;2022-11-25T13:34:26;35.60;;;24.42;;
55575;SDS011;41437;45.478;9.116;2022-11-25T13:37:35;37.67;;;27.42;;
55575;SDS011;41437;45.478;9.116;2022-11-25T13:40:39;33.83;;;25.77;;
55575;SDS011;41437;45.478;9.116;2022-11-25T13:43:49;36.83;;;26.45;;
55575;SDS011;41437;45.478;9.116;2022-11-25T13:46:55;36.72;;;25.83;;
55575;SDS011;41437;45.478;9.116;2022-11-25T13:50:04;33.45;;;24.00;;
55575;SDS011;41437;45.478;9.116;2022-11-25T13:53:17;37.65;;;25.80;;
55575;SDS011;41437;45.478;9.116;2022-11-25T13:59:34;31.73;;;22.15;;
55575;SDS011;41437;45.478;9.116;2022-11-25T14:02:38;38.00;;;27.35;;
55575;SDS011;41437;45.478;9.116;2022-11-25T14:05:59;38.95;;;26.30;;
55575;SDS011;41437;45.478;9.116;2022-11-25T14:09:11;38.97;;;27.45;;
55575;SDS011;41437;45.478;9.116;2022-11-25T14:12:32;36.33;;;25.98;;
55575;SDS011;41437;45.478;9.116;2022-11-25T14:15:58;38.45;;;27.17;;
55575;SDS011;41437;45.478;9.116;2022-11-25T14:19:15;35.22;;;26.45;;
55575;SDS011;41437;45.478;9.116;2022-11-25T14:22:34;38.72;;;26.75;;
55575;SDS011;41437;45.478;9.116;2022-11-25T14:25:54;40.60;;;27.67;;
55575;SDS011;41437;45.478;9.116;2022-11-25T14:28:59;38.35;;;27.35;;
55575;SDS011;41437;45.478;9.116;2022-11-25T14:32:06;38.00;;;27.08;;
55575;SDS011;41437;45.478;9.116;2022-11-25T14:35:12;38.63;;;27.75;;
55575;SDS011;41437;45.478;9.116;2022-11-25T14:38:21;37.75;;;26.52;;
55575;SDS011;41437;45.478;9.116;2022-11-25T14:41:27;46.08;;;26.90;;
55575;SDS011;41437;45.478;9.116;2022-11-25T14:44:33;41.08;;;28.02;;
55575;SDS011;41437;45.478;9.116;2022-11-25T14:47:40;37.47;;;27.13;;
55575;SDS011;41437;45.478;9.116;2022-11-25T14:50:53;35.80;;;26.52;;
55575;SDS011;41437;45.478;9.116;2022-11-25T14:53:57;36.40;;;27.25;;
55575;SDS011;41437;45.478;9.116;2022-11-25T14:56:59;37.47;;;27.03;;
55575;SDS011;41437;45.478;9.116;2022-11-25T15:00:03;35.38;;;25.55;;
55575;SDS011;41437;45.478;9.116;2022-11-25T15:03:16;34.33;;;25.23;;
55575;SDS011;41437;45.478;9.116;2022-11-25T15:06:21;38.88;;;27.10;;
55575;SDS011;41437;45.478;9.116;2022-11-25T15:09:25;35.72;;;25.13;;
55575;SDS011;41437;45.478;9.116;2022-11-25T15:12:29;42.20;;;28.38;;
55575;SDS011;41437;45.478;9.116;2022-11-25T15:15:33;36.10;;;26.55;;
55575;SDS011;41437;45.478;9.116;2022-11-25T15:18:39;37.33;;;27.73;;
55575;SDS011;41437;45.478;9.116;2022-11-25T15:21:52;43.17;;;28.92;;
55575;SDS011;41437;45.478;9.116;2022-11-25T15:25:07;40.33;;;28.08;;
55575;SDS011;41437;45.478;9.116;2022-11-25T15:28:15;41.45;;;28.90;;
55575;SDS011;41437;45.478;9.116;2022-11-25T15:31:19;39.13;;;26.67;;
55575;SDS011;41437;45.478;9.116;2022-11-25T15:37:26;37.85;;;27.05;;
55575;SDS011;41437;45.478;9.116;2022-11-25T15:40:33;39.75;;;27.25;;
55575;SDS011;41437;45.478;9.116;2022-11-25T15:43:36;44.22;;;27.60;;
55575;SDS011;41437;45.478;9.116;2022-11-25T15:46:48;37.38;;;26.50;;
55575;SDS011;41437;45.478;9.116;2022-11-25T15:49:55;37.55;;;25.50;;
55575;SDS011;41437;45.478;9.116;2022-11-25T15:53:00;42.80;;;27.90;;
55575;SDS011;41437;45.478;9.116;2022-11-25T15:56:04;37.55;;;26.73;;
55575;SDS011;41437;45.478;9.116;2022-11-25T16:02:48;43.95;;;28.17;;
55575;SDS011;41437;45.478;9.116;2022-11-25T16:05:57;44.47;;;29.98;;
55575;SDS011;41437;45.478;9.116;2022-11-25T16:09:00;40.73;;;27.67;;
55575;SDS011;41437;45.478;9.116;2022-11-25T16:12:05;40.17;;;28.13;;
55575;SDS011;41437;45.478;9.116;2022-11-25T16:15:15;44.28;;;30.85;;
55575;SDS011;41437;45.478;9.116;2022-11-25T16:18:17;43.35;;;29.83;;
55575;SDS011;41437;45.478;9.116;2022-11-25T16:21:21;45.58;;;30.60;;
55575;SDS011;41437;45.478;9.116;2022-11-25T16:24:26;45.22;;;30.00;;
55575;SDS011;41437;45.478;9.116;2022-11-25T16:27:37;42.13;;;27.88;;
55575;SDS011;41437;45.478;9.116;2022-11-25T16:30:39;43.83;;;30.73;;
55575;SDS011;41437;45.478;9.116;2022-11-25T16:33:40;40.13;;;28.17;;
55575;SDS011;41437;45.478;9.116;2022-11-25T16:36:42;43.33;;;29.40;;
55575;SDS011;41437;45.478;9.116;2022-11-25T16:39:44;46.70;;;30.65;;
55575;SDS011;41437;45.478;9.116;2022-11-25T16:42:49;44.72;;;30.08;;
55575;SDS011;41437;45.478;9.116;2022-11-25T16:45:52;43.17;;;28.88;;
55575;SDS011;41437;45.478;9.116;2022-11-25T16:48:55;45.97;;;31.08;;
55575;SDS011;41437;45.478;9.116;2022-11-25T16:51:56;42.20;;;29.30;;
55575;SDS011;41437;45.478;9.116;2022-11-25T16:54:58;46.08;;;31.17;;
55575;SDS011;41437;45.478;9.116;2022-11-25T16:58:01;45.42;;;30.80;;
55575;SDS011;41437;45.478;9.116;2022-11-25T17:01:05;51.75;;;31.63;;
55575;SDS011;41437;45.478;9.116;2022-11-25T17:04:13;53.85;;;32.70;;
55575;SDS011;41437;45.478;9.116;2022-11-25T17:07:18;44.95;;;30.17;;
55575;SDS011;41437;45.478;9.116;2022-11-25T17:10:21;46.93;;;33.23;;
55575;SDS011;41437;45.478;9.116;2022-11-25T17:13:24;48.13;;;33.08;;
55575;SDS011;41437;45.478;9.116;2022-11-25T17:16:27;52.47;;;32.75;;
55575;SDS011;41437;45.478;9.116;2022-11-25T17:19:29;51.72;;;32.47;;
55575;SDS011;41437;45.478;9.116;2022-11-25T17:22:30;50.85;;;34.33;;
55575;SDS011;41437;45.478;9.116;2022-11-25T17:25:33;49.28;;;33.58;;
55575;SDS011;41437;45.478;9.116;2022-11-25T17:28:36;45.30;;;31.50;;
55575;SDS011;41437;45.478;9.116;2022-11-25T17:31:38;46.30;;;31.43;;
55575;SDS011;41437;45.478;9.116;2022-11-25T17:34:40;48.03;;;32.47;;
55575;SDS011;41437;45.478;9.116;2022-11-25T17:37:42;47.83;;;32.33;;
55575;SDS011;41437;45.478;9.116;2022-11-25T17:40:44;48.95;;;33.70;;
55575;SDS011;41437;45.478;9.116;2022-11-25T17:43:48;48.60;;;33.13;;
55575;SDS011;41437;45.478;9.116;2022-11-25T17:46:52;49.17;;;32.22;;
55575;SDS011;41437;45.478;9.116;2022-11-25T17:49:54;51.42;;;33.95;;
55575;SDS011;41437;45.478;9.116;2022-11-25T17:52:56;51.30;;;34.20;;
55575;SDS011;41437;45.478;9.116;2022-11-25T17:55:58;51.85;;;34.45;;
55575;SDS011;41437;45.478;9.116;2022-11-25T17:59:02;49.67;;;33.45;;
55575;SDS011;41437;45.478;9.116;2022-11-25T18:02:08;54.90;;;34.72;;
55575;SDS011;41437;45.478;9.116;2022-11-25T18:05:16;51.88;;;33.80;;
55575;SDS011;41437;45.478;9.116;2022-11-25T18:08:20;54.65;;;35.42;;
55575;SDS011;41437;45.478;9.116;2022-11-25T18:11:22;53.10;;;35.28;;
55575;SDS011;41437;45.478;9.116;2022-11-25T18:14:26;50.05;;;33.97;;
55575;SDS011;41437;45.478;9.116;2022-11-25T18:17:30;55.05;;;35.47;;
55575;SDS011;41437;45.478;9.116;2022-11-25T18:20:32;54.70;;;35.95;;
55575;SDS011;41437;45.478;9.116;2022-11-25T18:23:33;52.70;;;35.08;;
55575;SDS011;41437;45.478;9.116;2022-11-25T18:26:37;49.53;;;33.75;;